sensor_id;sensor_type;location;lat;lon;timestamp;pressure;altitude;pressure_sealevel;temperature;humidity
65019;BME280;66069;51.164;-114.452;2023-02-22T00:00:36;87769.09;;;18.02;42.87
65019;BME280;66069;51.164;-114.452;2023-02-22T00:03:19;87785.97;;;18.12;42.88
65019;BME280;66069;51.164;-114.452;2023-02-22T00:05:58;87783.78;;;18.07;42.89
65019;BME280;66069;51.164;-114.452;2023-02-22T00:08:26;87786.38;;;18.10;42.96
65019;BME280;66069;51.164;-114.452;2023-02-22T00:10:55;87795.41;;;18.13;43.12
65019;BME280;66069;51.164;-114.452;2023-02-22T00:13:21;87798.47;;;18.11;42.95
65019;BME280;66069;51.164;-114.452;2023-02-22T00:15:48;87808.34;;;18.11;43.07
65019;BME280;66069;51.164;-114.452;2023-02-22T00:18:16;87801.97;;;18.08;42.83
65019;BME280;66069;51.164;-114.452;2023-02-22T00:20:43;87794.06;;;18.05;43.05
65019;BME280;66069;51.164;-114.452;2023-02-22T00:23:19;87810.25;;;18.10;42.90
65019;BME280;66069;51.164;-114.452;2023-02-22T00:25:48;87802.34;;;18.07;43.08
65019;BME280;66069;51.164;-114.452;2023-02-22T00:28:16;87814.00;;;18.13;43.02
65019;BME280;66069;51.164;-114.452;2023-02-22T00:30:44;87815.97;;;18.09;42.86
65019;BME280;66069;51.164;-114.452;2023-02-22T00:33:11;87811.06;;;18.07;42.92
65019;BME280;66069;51.164;-114.452;2023-02-22T00:35:38;87794.22;;;17.94;42.99
65019;BME280;66069;51.164;-114.452;2023-02-22T00:38:05;87811.19;;;18.00;42.95
65019;BME280;66069;51.164;-114.452;2023-02-22T00:40:33;87830.31;;;18.11;42.89
65019;BME280;66069;51.164;-114.452;2023-02-22T00:43:01;87818.34;;;18.03;42.85
65019;BME280;66069;51.164;-114.452;2023-02-22T00:45:29;87826.59;;;18.09;42.97
65019;BME280;66069;51.164;-114.452;2023-02-22T00:47:57;87833.78;;;18.08;42.94
65019;BME280;66069;51.164;-114.452;2023-02-22T00:50:25;87836.09;;;18.06;42.75
65019;BME280;66069;51.164;-114.452;2023-02-22T00:52:55;87838.00;;;18.06;42.98
65019;BME280;66069;51.164;-114.452;2023-02-22T00:55:30;87842.97;;;18.03;42.93
65019;BME280;66069;51.164;-114.452;2023-02-22T00:57:57;87838.06;;;18.02;42.81
65019;BME280;66069;51.164;-114.452;2023-02-22T01:00:30;87831.78;;;17.92;42.92
65019;BME280;66069;51.164;-114.452;2023-02-22T01:02:57;87832.09;;;17.94;42.94
65019;BME280;66069;51.164;-114.452;2023-02-22T01:05:26;87848.97;;;18.08;42.74
65019;BME280;66069;51.164;-114.452;2023-02-22T01:07:54;87854.53;;;18.13;42.82
65019;BME280;66069;51.164;-114.452;2023-02-22T01:10:22;87842.25;;;17.99;43.01
65019;BME280;66069;51.164;-114.452;2023-02-22T01:12:49;87852.81;;;18.03;42.76
65019;BME280;66069;51.164;-114.452;2023-02-22T01:15:20;87851.22;;;18.09;42.84
65019;BME280;66069;51.164;-114.452;2023-02-22T01:17:53;87857.19;;;18.13;42.81
65019;BME280;66069;51.164;-114.452;2023-02-22T01:20:21;87849.88;;;17.97;42.93
65019;BME280;66069;51.164;-114.452;2023-02-22T01:22:49;87864.13;;;18.07;42.72
65019;BME280;66069;51.164;-114.452;2023-02-22T01:25:19;87875.38;;;18.15;42.76
65019;BME280;66069;51.164;-114.452;2023-02-22T01:27:46;87870.19;;;18.08;42.58
65019;BME280;66069;51.164;-114.452;2023-02-22T01:30:13;87888.25;;;18.16;42.63
65019;BME280;66069;51.164;-114.452;2023-02-22T01:32:41;87877.00;;;18.09;42.68
65019;BME280;66069;51.164;-114.452;2023-02-22T01:35:11;87876.25;;;18.08;42.67
65019;BME280;66069;51.164;-114.452;2023-02-22T01:37:39;87881.47;;;18.12;42.59
65019;BME280;66069;51.164;-114.452;2023-02-22T01:40:09;87880.72;;;18.11;42.62
65019;BME280;66069;51.164;-114.452;2023-02-22T01:42:36;87899.25;;;18.15;42.59
65019;BME280;66069;51.164;-114.452;2023-02-22T01:50:25;87910.56;;;18.19;42.82
65019;BME280;66069;51.164;-114.452;2023-02-22T01:52:52;87912.88;;;18.17;42.67
65019;BME280;66069;51.164;-114.452;2023-02-22T01:55:19;87900.75;;;18.16;42.94
65019;BME280;66069;51.164;-114.452;2023-02-22T01:57:46;87934.69;;;18.28;42.69
65019;BME280;66069;51.164;-114.452;2023-02-22T02:00:15;87946.34;;;18.34;42.88
65019;BME280;66069;51.164;-114.452;2023-02-22T02:02:48;87941.38;;;18.36;42.76
65019;BME280;66069;51.164;-114.452;2023-02-22T02:05:16;87936.47;;;18.35;42.87
65019;BME280;66069;51.164;-114.452;2023-02-22T02:07:42;87937.28;;;18.32;42.67
65019;BME280;66069;51.164;-114.452;2023-02-22T02:10:13;87949.28;;;18.40;42.86
65019;BME280;66069;51.164;-114.452;2023-02-22T02:12:45;87951.13;;;18.43;42.80
65019;BME280;66069;51.164;-114.452;2023-02-22T02:17:49;87947.78;;;18.39;42.83
65019;BME280;66069;51.164;-114.452;2023-02-22T02:23:00;87966.88;;;18.53;42.96
65019;BME280;66069;51.164;-114.452;2023-02-22T02:25:43;87976.69;;;18.56;42.85
65019;BME280;66069;51.164;-114.452;2023-02-22T02:28:34;87970.25;;;18.58;42.70
65019;BME280;66069;51.164;-114.452;2023-02-22T02:33:55;87978.47;;;18.63;42.68
65019;BME280;66069;51.164;-114.452;2023-02-22T02:36:43;87980.34;;;18.66;42.66
65019;BME280;66069;51.164;-114.452;2023-02-22T02:39:28;87985.25;;;18.68;42.85
65019;BME280;66069;51.164;-114.452;2023-02-22T02:41:57;87975.06;;;18.63;42.79
65019;BME280;66069;51.164;-114.452;2023-02-22T02:44:54;87985.66;;;18.66;42.95
65019;BME280;66069;51.164;-114.452;2023-02-22T02:47:31;87972.50;;;18.59;42.62
65019;BME280;66069;51.164;-114.452;2023-02-22T02:50:21;87992.81;;;18.69;42.66
65019;BME280;66069;51.164;-114.452;2023-02-22T02:52:52;87992.44;;;18.71;42.75
65019;BME280;66069;51.164;-114.452;2023-02-22T02:55:23;87973.66;;;18.58;42.87
65019;BME280;66069;51.164;-114.452;2023-02-22T02:57:49;87993.22;;;18.68;42.62
65019;BME280;66069;51.164;-114.452;2023-02-22T03:00:20;87991.72;;;18.67;42.64
65019;BME280;66069;51.164;-114.452;2023-02-22T03:08:42;88015.06;;;18.79;42.64
65019;BME280;66069;51.164;-114.452;2023-02-22T03:17:22;88023.72;;;18.83;42.48
65019;BME280;66069;51.164;-114.452;2023-02-22T03:20:03;88005.59;;;18.78;42.67
65019;BME280;66069;51.164;-114.452;2023-02-22T03:22:38;88021.47;;;18.81;42.45
65019;BME280;66069;51.164;-114.452;2023-02-22T03:25:23;88003.06;;;18.71;42.61
65019;BME280;66069;51.164;-114.452;2023-02-22T03:27:56;88015.06;;;18.79;42.42
65019;BME280;66069;51.164;-114.452;2023-02-22T03:30:40;88019.56;;;18.82;42.54
65019;BME280;66069;51.164;-114.452;2023-02-22T03:33:17;88018.06;;;18.81;42.55
65019;BME280;66069;51.164;-114.452;2023-02-22T03:35:55;88015.81;;;18.79;42.45
65019;BME280;66069;51.164;-114.452;2023-02-22T03:38:27;88027.94;;;18.80;42.44
65019;BME280;66069;51.164;-114.452;2023-02-22T03:40:55;88044.53;;;18.88;42.32
65019;BME280;66069;51.164;-114.452;2023-02-22T03:43:28;88040.75;;;18.86;42.09
65019;BME280;66069;51.164;-114.452;2023-02-22T03:45:57;88010.72;;;18.65;42.21
65019;BME280;66069;51.164;-114.452;2023-02-22T03:50:54;88031.28;;;18.85;42.39
65019;BME280;66069;51.164;-114.452;2023-02-22T03:53:23;88040.00;;;18.85;42.39
65019;BME280;66069;51.164;-114.452;2023-02-22T03:55:51;88032.78;;;18.86;42.20
65019;BME280;66069;51.164;-114.452;2023-02-22T03:58:21;88047.94;;;18.89;42.31
65019;BME280;66069;51.164;-114.452;2023-02-22T04:00:49;88056.56;;;18.93;42.02
65019;BME280;66069;51.164;-114.452;2023-02-22T04:03:21;88058.16;;;18.90;42.23
65019;BME280;66069;51.164;-114.452;2023-02-22T04:05:47;88056.56;;;18.93;42.45
65019;BME280;66069;51.164;-114.452;2023-02-22T04:08:14;88048.38;;;18.83;42.31
65019;BME280;66069;51.164;-114.452;2023-02-22T04:10:40;88045.31;;;18.85;42.26
65019;BME280;66069;51.164;-114.452;2023-02-22T04:13:07;88054.75;;;18.90;42.27
65019;BME280;66069;51.164;-114.452;2023-02-22T04:15:35;88044.28;;;18.79;42.20
65019;BME280;66069;51.164;-114.452;2023-02-22T04:18:01;88057.03;;;18.88;42.23
65019;BME280;66069;51.164;-114.452;2023-02-22T04:20:27;88064.97;;;18.91;42.12
65019;BME280;66069;51.164;-114.452;2023-02-22T04:22:54;88064.63;;;18.89;42.07
65019;BME280;66069;51.164;-114.452;2023-02-22T04:25:22;88070.97;;;18.95;42.00
65019;BME280;66069;51.164;-114.452;2023-02-22T04:27:48;88080.03;;;18.98;42.20
65019;BME280;66069;51.164;-114.452;2023-02-22T04:30:17;88080.03;;;18.98;42.11
65019;BME280;66069;51.164;-114.452;2023-02-22T04:32:44;88066.16;;;18.87;42.11
65019;BME280;66069;51.164;-114.452;2023-02-22T04:35:10;88081.31;;;18.90;42.01
65019;BME280;66069;51.164;-114.452;2023-02-22T04:37:36;88083.56;;;18.91;41.91
65019;BME280;66069;51.164;-114.452;2023-02-22T04:40:04;88087.59;;;18.99;42.16
65019;BME280;66069;51.164;-114.452;2023-02-22T04:42:36;88090.25;;;18.99;42.07
65019;BME280;66069;51.164;-114.452;2023-02-22T04:45:04;88098.22;;;18.99;42.09
65019;BME280;66069;51.164;-114.452;2023-02-22T04:47:31;88087.72;;;18.92;42.17
65019;BME280;66069;51.164;-114.452;2023-02-22T04:50:00;88085.81;;;18.93;42.05
65019;BME280;66069;51.164;-114.452;2023-02-22T04:52:26;88086.97;;;18.92;41.86
65019;BME280;66069;51.164;-114.452;2023-02-22T04:54:52;88075.69;;;18.84;41.90
65019;BME280;66069;51.164;-114.452;2023-02-22T04:57:19;88106.19;;;18.99;42.03
65019;BME280;66069;51.164;-114.452;2023-02-22T04:59:45;88096.44;;;18.93;41.90
65019;BME280;66069;51.164;-114.452;2023-02-22T05:02:11;88096.84;;;18.91;41.94
65019;BME280;66069;51.164;-114.452;2023-02-22T05:04:38;88099.16;;;18.89;42.09
65019;BME280;66069;51.164;-114.452;2023-02-22T05:07:04;88111.97;;;18.94;42.04
65019;BME280;66069;51.164;-114.452;2023-02-22T05:09:31;88107.13;;;18.89;41.87
65019;BME280;66069;51.164;-114.452;2023-02-22T05:11:57;88092.84;;;18.79;41.79
65019;BME280;66069;51.164;-114.452;2023-02-22T05:14:23;88104.19;;;18.83;41.84
65019;BME280;66069;51.164;-114.452;2023-02-22T05:16:56;88102.31;;;18.80;41.68
65019;BME280;66069;51.164;-114.452;2023-02-22T05:19:22;88113.22;;;18.86;41.66
65019;BME280;66069;51.164;-114.452;2023-02-22T05:21:49;88126.47;;;18.90;41.66
65019;BME280;66069;51.164;-114.452;2023-02-22T05:24:16;88107.31;;;18.75;41.50
65019;BME280;66069;51.164;-114.452;2023-02-22T05:26:45;88117.91;;;18.78;41.67
65019;BME280;66069;51.164;-114.452;2023-02-22T05:29:11;88129.59;;;18.85;41.61
65019;BME280;66069;51.164;-114.452;2023-02-22T05:31:38;88122.13;;;18.76;41.33
65019;BME280;66069;51.164;-114.452;2023-02-22T05:34:06;88108.59;;;18.67;41.43
65019;BME280;66069;51.164;-114.452;2023-02-22T05:36:32;88123.25;;;18.75;41.40
65019;BME280;66069;51.164;-114.452;2023-02-22T05:38:59;88107.81;;;18.66;41.43
65019;BME280;66069;51.164;-114.452;2023-02-22T05:41:27;88117.59;;;18.73;41.18
65019;BME280;66069;51.164;-114.452;2023-02-22T05:43:53;88131.63;;;18.73;41.41
65019;BME280;66069;51.164;-114.452;2023-02-22T05:46:19;88112.78;;;18.64;41.27
65019;BME280;66069;51.164;-114.452;2023-02-22T05:48:46;88120.00;;;18.64;41.34
65019;BME280;66069;51.164;-114.452;2023-02-22T05:51:12;88113.91;;;18.63;41.23
65019;BME280;66069;51.164;-114.452;2023-02-22T05:53:38;88126.41;;;18.66;41.21
65019;BME280;66069;51.164;-114.452;2023-02-22T05:56:05;88116.97;;;18.62;41.03
65019;BME280;66069;51.164;-114.452;2023-02-22T05:58:31;88132.13;;;18.65;41.06
65019;BME280;66069;51.164;-114.452;2023-02-22T06:00:58;88122.72;;;18.56;41.12
65019;BME280;66069;51.164;-114.452;2023-02-22T06:03:24;88113.69;;;18.54;41.10
65019;BME280;66069;51.164;-114.452;2023-02-22T06:05:50;88120.91;;;18.53;41.08
65019;BME280;66069;51.164;-114.452;2023-02-22T06:08:17;88131.47;;;18.57;41.05
65019;BME280;66069;51.164;-114.452;2023-02-22T06:10:43;88139.81;;;18.55;40.98
65019;BME280;66069;51.164;-114.452;2023-02-22T06:13:10;88124.09;;;18.41;40.91
65019;BME280;66069;51.164;-114.452;2023-02-22T06:15:38;88143.41;;;18.45;40.83
65019;BME280;66069;51.164;-114.452;2023-02-22T06:18:04;88144.50;;;18.48;40.86
65019;BME280;66069;51.164;-114.452;2023-02-22T06:20:31;88134.38;;;18.39;40.87
65019;BME280;66069;51.164;-114.452;2023-02-22T06:22:59;88143.47;;;18.38;40.76
65019;BME280;66069;51.164;-114.452;2023-02-22T06:25:28;88146.94;;;18.35;40.75
65019;BME280;66069;51.164;-114.452;2023-02-22T06:27:56;88146.59;;;18.33;40.82
65019;BME280;66069;51.164;-114.452;2023-02-22T06:30:24;88154.88;;;18.39;40.85
65019;BME280;66069;51.164;-114.452;2023-02-22T06:32:51;88147.72;;;18.32;40.69
65019;BME280;66069;51.164;-114.452;2023-02-22T06:35:18;88155.69;;;18.32;41.05
65019;BME280;66069;51.164;-114.452;2023-02-22T06:37:44;88149.34;;;18.26;40.84
65019;BME280;66069;51.164;-114.452;2023-02-22T06:40:11;88162.53;;;18.29;40.77
65019;BME280;66069;51.164;-114.452;2023-02-22T06:42:38;88160.72;;;18.23;40.76
65019;BME280;66069;51.164;-114.452;2023-02-22T06:45:06;88163.03;;;18.21;40.59
65019;BME280;66069;51.164;-114.452;2023-02-22T06:47:36;88151.38;;;18.11;40.72
65019;BME280;66069;51.164;-114.452;2023-02-22T06:50:02;88153.63;;;18.13;40.84
65019;BME280;66069;51.164;-114.452;2023-02-22T06:52:29;88165.31;;;18.19;40.73
65019;BME280;66069;51.164;-114.452;2023-02-22T06:54:55;88160.84;;;18.12;40.79
65019;BME280;66069;51.164;-114.452;2023-02-22T06:57:21;88150.38;;;18.01;40.70
65019;BME280;66069;51.164;-114.452;2023-02-22T06:59:47;88177.53;;;18.13;40.65
65019;BME280;66069;51.164;-114.452;2023-02-22T07:02:14;88161.34;;;18.03;40.80
65019;BME280;66069;51.164;-114.452;2023-02-22T07:04:40;88174.94;;;18.06;40.73
65019;BME280;66069;51.164;-114.452;2023-02-22T07:07:07;88176.50;;;18.03;40.60
65019;BME280;66069;51.164;-114.452;2023-02-22T07:09:33;88169.72;;;17.98;40.80
65019;BME280;66069;51.164;-114.452;2023-02-22T07:11:59;88154.72;;;17.85;40.87
65019;BME280;66069;51.164;-114.452;2023-02-22T07:14:26;88168.66;;;17.92;40.69
65019;BME280;66069;51.164;-114.452;2023-02-22T07:16:52;88159.22;;;17.88;40.74
65019;BME280;66069;51.164;-114.452;2023-02-22T07:19:18;88187.59;;;17.94;40.54
65019;BME280;66069;51.164;-114.452;2023-02-22T07:21:45;88183.81;;;17.92;40.54
65019;BME280;66069;51.164;-114.452;2023-02-22T07:24:12;88184.22;;;17.90;40.70
65019;BME280;66069;51.164;-114.452;2023-02-22T07:26:40;88178.94;;;17.87;40.56
65019;BME280;66069;51.164;-114.452;2023-02-22T07:29:07;88177.09;;;17.84;40.64
65019;BME280;66069;51.164;-114.452;2023-02-22T07:31:37;88187.28;;;17.89;40.54
65019;BME280;66069;51.164;-114.452;2023-02-22T07:34:04;88177.44;;;17.86;40.53
65019;BME280;66069;51.164;-114.452;2023-02-22T07:36:31;88173.75;;;17.76;40.44
65019;BME280;66069;51.164;-114.452;2023-02-22T07:38:57;88176.06;;;17.74;40.64
65019;BME280;66069;51.164;-114.452;2023-02-22T07:41:24;88157.25;;;17.58;40.57
65019;BME280;66069;51.164;-114.452;2023-02-22T07:43:50;88179.09;;;17.72;40.64
65019;BME280;66069;51.164;-114.452;2023-02-22T07:46:17;88170.47;;;17.61;40.46
65019;BME280;66069;51.164;-114.452;2023-02-22T07:48:43;88182.16;;;17.67;40.59
65019;BME280;66069;51.164;-114.452;2023-02-22T07:51:09;88172.78;;;17.59;40.55
65019;BME280;66069;51.164;-114.452;2023-02-22T07:53:36;88176.16;;;17.60;40.55
65019;BME280;66069;51.164;-114.452;2023-02-22T07:56:04;88191.25;;;17.66;40.63
65019;BME280;66069;51.164;-114.452;2023-02-22T07:58:31;88190.13;;;17.64;40.58
65019;BME280;66069;51.164;-114.452;2023-02-22T08:00:57;88185.28;;;17.55;40.40
65019;BME280;66069;51.164;-114.452;2023-02-22T08:03:25;88186.47;;;17.50;40.69
65019;BME280;66069;51.164;-114.452;2023-02-22T08:05:54;88197.41;;;17.56;40.42
65019;BME280;66069;51.164;-114.452;2023-02-22T08:08:21;88188.00;;;17.52;40.48
65019;BME280;66069;51.164;-114.452;2023-02-22T08:10:49;88187.66;;;17.46;40.58
65019;BME280;66069;51.164;-114.452;2023-02-22T08:13:16;88194.47;;;17.47;40.52
65019;BME280;66069;51.164;-114.452;2023-02-22T08:15:43;88202.41;;;17.47;40.62
65019;BME280;66069;51.164;-114.452;2023-02-22T08:18:11;88200.53;;;17.47;40.58
65019;BME280;66069;51.164;-114.452;2023-02-22T08:20:40;88190.69;;;17.44;40.52
65019;BME280;66069;51.164;-114.452;2023-02-22T08:23:08;88190.00;;;17.37;40.54
65019;BME280;66069;51.164;-114.452;2023-02-22T08:25:34;88203.19;;;17.44;40.59
65019;BME280;66069;51.164;-114.452;2023-02-22T08:28:04;88201.75;;;17.36;40.39
65019;BME280;66069;51.164;-114.452;2023-02-22T08:30:32;88207.81;;;17.36;40.58
65019;BME280;66069;51.164;-114.452;2023-02-22T08:33:00;88209.72;;;17.36;40.38
65019;BME280;66069;51.164;-114.452;2023-02-22T08:35:30;88200.59;;;17.37;40.40
65019;BME280;66069;51.164;-114.452;2023-02-22T08:38:00;88191.22;;;17.25;40.46
65019;BME280;66069;51.164;-114.452;2023-02-22T08:40:29;88188.22;;;17.23;40.49
65019;BME280;66069;51.164;-114.452;2023-02-22T08:42:56;88175.75;;;17.20;40.63
65019;BME280;66069;51.164;-114.452;2023-02-22T08:45:23;88185.97;;;17.21;40.50
65019;BME280;66069;51.164;-114.452;2023-02-22T08:47:50;88188.66;;;17.18;40.51
65019;BME280;66069;51.164;-114.452;2023-02-22T08:50:20;88188.72;;;17.11;40.50
65019;BME280;66069;51.164;-114.452;2023-02-22T08:52:46;88210.56;;;17.22;40.68
65019;BME280;66069;51.164;-114.452;2023-02-22T08:55:14;88194.81;;;17.04;40.53
65019;BME280;66069;51.164;-114.452;2023-02-22T08:57:40;88188.72;;;17.07;40.50
65019;BME280;66069;51.164;-114.452;2023-02-22T09:00:07;88184.97;;;17.01;40.53
65019;BME280;66069;51.164;-114.452;2023-02-22T09:02:34;88193.69;;;17.02;40.52
65019;BME280;66069;51.164;-114.452;2023-02-22T09:05:00;88193.69;;;17.02;40.53
65019;BME280;66069;51.164;-114.452;2023-02-22T09:07:26;88196.31;;;17.05;40.55
65019;BME280;66069;51.164;-114.452;2023-02-22T09:09:53;88192.56;;;16.99;40.62
65019;BME280;66069;51.164;-114.452;2023-02-22T09:12:19;88186.53;;;16.99;40.57
65019;BME280;66069;51.164;-114.452;2023-02-22T09:14:45;88193.31;;;17.00;40.42
65019;BME280;66069;51.164;-114.452;2023-02-22T09:17:11;88188.09;;;16.92;40.58
65019;BME280;66069;51.164;-114.452;2023-02-22T09:19:38;88196.72;;;17.00;40.37
65019;BME280;66069;51.164;-114.452;2023-02-22T09:22:04;88186.97;;;16.90;40.60
65019;BME280;66069;51.164;-114.452;2023-02-22T09:24:30;88195.28;;;16.88;40.49
65019;BME280;66069;51.164;-114.452;2023-02-22T09:26:57;88187.72;;;16.90;40.64
65019;BME280;66069;51.164;-114.452;2023-02-22T09:29:26;88184.75;;;16.85;40.52
65019;BME280;66069;51.164;-114.452;2023-02-22T09:31:53;88200.56;;;16.92;40.61
65019;BME280;66069;51.164;-114.452;2023-02-22T09:34:21;88193.03;;;16.90;40.59
65019;BME280;66069;51.164;-114.452;2023-02-22T09:36:55;88197.94;;;16.88;40.58
65019;BME280;66069;51.164;-114.452;2023-02-22T09:39:24;88189.28;;;16.84;40.54
65019;BME280;66069;51.164;-114.452;2023-02-22T09:47:44;88196.13;;;16.78;40.69
65019;BME280;66069;51.164;-114.452;2023-02-22T09:50:16;88171.25;;;16.58;40.35
65019;BME280;66069;51.164;-114.452;2023-02-22T09:57:57;88183.72;;;16.61;40.69
65019;BME280;66069;51.164;-114.452;2023-02-22T10:00:32;88202.59;;;16.70;40.67
65019;BME280;66069;51.164;-114.452;2023-02-22T10:06:12;88201.09;;;16.65;40.63
65019;BME280;66069;51.164;-114.452;2023-02-22T10:08:41;88186.41;;;16.54;40.67
65019;BME280;66069;51.164;-114.452;2023-02-22T10:14:03;88177.38;;;16.44;40.51
65019;BME280;66069;51.164;-114.452;2023-02-22T10:16:46;88192.47;;;16.51;40.76
65019;BME280;66069;51.164;-114.452;2023-02-22T10:25:10;88184.22;;;16.41;40.59
65019;BME280;66069;51.164;-114.452;2023-02-22T10:27:55;88187.56;;;16.46;40.46
65019;BME280;66069;51.164;-114.452;2023-02-22T10:30:27;88191.00;;;16.42;40.53
65019;BME280;66069;51.164;-114.452;2023-02-22T10:35:36;88174.81;;;16.26;40.52
65019;BME280;66069;51.164;-114.452;2023-02-22T10:38:17;88188.41;;;16.35;40.78
65019;BME280;66069;51.164;-114.452;2023-02-22T10:43:36;88194.09;;;16.30;40.66
65019;BME280;66069;51.164;-114.452;2023-02-22T10:46:06;88194.44;;;16.32;40.50
65019;BME280;66069;51.164;-114.452;2023-02-22T10:48:36;88190.69;;;16.26;40.65
65019;BME280;66069;51.164;-114.452;2023-02-22T10:51:06;88209.19;;;16.33;40.60
65019;BME280;66069;51.164;-114.452;2023-02-22T10:53:34;88206.94;;;16.32;40.59
65019;BME280;66069;51.164;-114.452;2023-02-22T10:58:54;88208.84;;;16.28;40.58
65019;BME280;66069;51.164;-114.452;2023-02-22T11:01:32;88196.41;;;16.18;40.50
65019;BME280;66069;51.164;-114.452;2023-02-22T11:04:00;88205.84;;;16.22;40.29
65019;BME280;66069;51.164;-114.452;2023-02-22T11:06:27;88209.25;;;16.23;40.47
65019;BME280;66069;51.164;-114.452;2023-02-22T11:09:05;88212.28;;;16.21;40.65
65019;BME280;66069;51.164;-114.452;2023-02-22T11:11:35;88200.19;;;16.13;40.59
65019;BME280;66069;51.164;-114.452;2023-02-22T11:14:02;88204.78;;;16.09;40.58
65019;BME280;66069;51.164;-114.452;2023-02-22T11:16:34;88206.25;;;16.13;40.58
65019;BME280;66069;51.164;-114.452;2023-02-22T11:21:35;88197.19;;;16.07;40.71
65019;BME280;66069;51.164;-114.452;2023-02-22T11:24:05;88199.50;;;16.02;40.52
65019;BME280;66069;51.164;-114.452;2023-02-22T11:26:42;88189.69;;;15.99;40.47
65019;BME280;66069;51.164;-114.452;2023-02-22T11:29:31;88196.13;;;15.94;40.53
65019;BME280;66069;51.164;-114.452;2023-02-22T11:32:13;88215.00;;;16.00;40.74
65019;BME280;66069;51.164;-114.452;2023-02-22T11:34:41;88221.41;;;16.02;40.57
65019;BME280;66069;51.164;-114.452;2023-02-22T11:37:32;88220.28;;;16.00;40.68
65019;BME280;66069;51.164;-114.452;2023-02-22T11:40:19;88203.31;;;15.86;40.54
65019;BME280;66069;51.164;-114.452;2023-02-22T11:42:49;88225.97;;;15.98;40.38
65019;BME280;66069;51.164;-114.452;2023-02-22T11:45:33;88191.66;;;15.70;40.27
65019;BME280;66069;51.164;-114.452;2023-02-22T11:48:01;88232.00;;;15.99;40.21
65019;BME280;66069;51.164;-114.452;2023-02-22T11:50:43;88208.97;;;15.88;40.27
65019;BME280;66069;51.164;-114.452;2023-02-22T11:56:35;88216.88;;;15.96;40.16
65019;BME280;66069;51.164;-114.452;2023-02-22T12:02:14;88222.19;;;16.03;40.22
65019;BME280;66069;51.164;-114.452;2023-02-22T12:18:38;88237.25;;;16.09;40.39
65019;BME280;66069;51.164;-114.452;2023-02-22T12:21:13;88220.28;;;16.00;40.50
65019;BME280;66069;51.164;-114.452;2023-02-22T12:26:31;88219.13;;;16.01;40.33
65019;BME280;66069;51.164;-114.452;2023-02-22T12:34:55;88241.03;;;16.12;40.36
65019;BME280;66069;51.164;-114.452;2023-02-22T12:37:27;88244.03;;;16.18;40.44
65019;BME280;66069;51.164;-114.452;2023-02-22T12:45:24;88236.09;;;16.14;40.30
65019;BME280;66069;51.164;-114.452;2023-02-22T12:50:59;88240.63;;;16.17;40.51
65019;BME280;66069;51.164;-114.452;2023-02-22T12:53:38;88233.09;;;16.12;40.51
65019;BME280;66069;51.164;-114.452;2023-02-22T12:56:19;88249.69;;;16.23;40.41
65019;BME280;66069;51.164;-114.452;2023-02-22T12:58:58;88246.66;;;16.25;40.38
65019;BME280;66069;51.164;-114.452;2023-02-22T13:01:49;88248.16;;;16.26;40.19
65019;BME280;66069;51.164;-114.452;2023-02-22T13:04:16;88243.25;;;16.24;40.15
65019;BME280;66069;51.164;-114.452;2023-02-22T13:09:47;88240.22;;;16.26;40.00
65019;BME280;66069;51.164;-114.452;2023-02-22T13:15:26;88256.41;;;16.38;40.31
65019;BME280;66069;51.164;-114.452;2023-02-22T13:29:04;88269.19;;;16.61;40.26
65019;BME280;66069;51.164;-114.452;2023-02-22T13:35:05;88265.03;;;16.71;40.43
65019;BME280;66069;51.164;-114.452;2023-02-22T13:37:51;88258.53;;;16.76;40.51
65019;BME280;66069;51.164;-114.452;2023-02-22T13:51:49;88261.50;;;16.92;40.57
65019;BME280;66069;51.164;-114.452;2023-02-22T13:56:53;88259.13;;;17.05;40.73
65019;BME280;66069;51.164;-114.452;2023-02-22T13:59:33;88264.38;;;17.12;40.77
65019;BME280;66069;51.164;-114.452;2023-02-22T14:02:01;88255.75;;;17.04;40.73
65019;BME280;66069;51.164;-114.452;2023-02-22T14:04:37;88264.75;;;17.14;40.87
65019;BME280;66069;51.164;-114.452;2023-02-22T14:09:55;88268.88;;;17.22;40.75
65019;BME280;66069;51.164;-114.452;2023-02-22T14:20:22;88268.75;;;17.40;40.80
65019;BME280;66069;51.164;-114.452;2023-02-22T14:22:56;88258.16;;;17.36;40.96
65019;BME280;66069;51.164;-114.452;2023-02-22T14:27:58;88283.03;;;17.53;40.76
65019;BME280;66069;51.164;-114.452;2023-02-22T14:30:32;88270.56;;;17.50;40.60
65019;BME280;66069;51.164;-114.452;2023-02-22T14:32:58;88277.69;;;17.57;40.60
65019;BME280;66069;51.164;-114.452;2023-02-22T14:35:37;88284.84;;;17.63;40.52
65019;BME280;66069;51.164;-114.452;2023-02-22T14:38:15;88272.38;;;17.60;40.53
65019;BME280;66069;51.164;-114.452;2023-02-22T14:40:43;88281.81;;;17.65;40.51
65019;BME280;66069;51.164;-114.452;2023-02-22T14:43:16;88285.53;;;17.74;40.35
65019;BME280;66069;51.164;-114.452;2023-02-22T14:45:55;88264.34;;;17.71;40.42
65019;BME280;66069;51.164;-114.452;2023-02-22T14:48:38;88285.44;;;17.85;40.40
65019;BME280;66069;51.164;-114.452;2023-02-22T14:51:26;88282.78;;;17.89;40.33
65019;BME280;66069;51.164;-114.452;2023-02-22T14:54:00;88267.72;;;17.79;40.49
65019;BME280;66069;51.164;-114.452;2023-02-22T15:01:38;88295.22;;;17.95;40.26
65019;BME280;66069;51.164;-114.452;2023-02-22T15:06:49;88278.59;;;17.91;40.47
65019;BME280;66069;51.164;-114.452;2023-02-22T15:09:19;88305.38;;;18.04;40.28
65019;BME280;66069;51.164;-114.452;2023-02-22T15:12:13;88303.50;;;18.01;40.30
65019;BME280;66069;51.164;-114.452;2023-02-22T15:14:42;88294.84;;;17.93;40.31
65019;BME280;66069;51.164;-114.452;2023-02-22T15:17:23;88306.09;;;18.08;40.22
65019;BME280;66069;51.164;-114.452;2023-02-22T15:19:50;88291.78;;;17.95;40.20